createdAt,value
2022-09-07T00:02:52.906Z,100991.24
2022-09-07T00:06:20.051Z,100991.00
2022-09-07T00:09:46.993Z,100985.30
2022-09-07T00:13:13.802Z,100980.52
2022-09-07T00:16:40.832Z,100987.09
2022-09-07T00:20:12.001Z,100988.41
2022-09-07T00:23:40.329Z,100991.15
2022-09-07T00:27:07.956Z,100991.61
2022-09-07T00:30:35.019Z,100998.73
2022-09-07T00:34:03.562Z,100990.31
2022-09-07T00:37:30.383Z,100988.73
2022-09-07T00:40:57.493Z,100985.56
2022-09-07T00:45:11.256Z,100986.40
2022-09-07T00:48:41.437Z,100983.36
2022-09-07T00:52:11.585Z,100981.54
2022-09-07T00:55:41.153Z,100982.16
2022-09-07T00:59:08.723Z,100986.45
2022-09-07T01:02:35.903Z,100984.46
2022-09-07T01:06:10.810Z,100979.48
2022-09-07T01:09:39.284Z,100976.95
2022-09-07T01:13:06.563Z,100972.68
2022-09-07T01:16:50.059Z,100976.98
2022-09-07T01:20:37.979Z,100977.11
2022-09-07T01:24:24.643Z,100974.47
2022-09-07T01:28:06.779Z,100968.48
2022-09-07T01:31:42.925Z,100963.05
2022-09-07T01:35:19.923Z,100963.70
2022-09-07T01:38:52.340Z,100962.89
2022-09-07T01:42:22.029Z,100962.83
2022-09-07T01:45:50.218Z,100957.34
2022-09-07T01:49:21.821Z,100951.83
2022-09-07T01:52:54.458Z,100945.15
2022-09-07T01:56:30.177Z,100952.96
2022-09-07T02:00:06.193Z,100946.24
2022-09-07T02:03:44.153Z,100947.05
2022-09-07T02:07:16.334Z,100951.02
2022-09-07T02:10:46.719Z,100950.45
2022-09-07T02:14:19.723Z,100944.43
2022-09-07T02:17:50.926Z,100949.83
2022-09-07T02:21:21.032Z,100948.73
2022-09-07T02:24:53.220Z,100946.80
2022-09-07T02:28:24.875Z,100943.42
2022-09-07T02:31:52.152Z,100942.47
2022-09-07T02:35:19.575Z,100940.30
2022-09-07T02:38:46.633Z,100944.26
2022-09-07T02:42:13.275Z,100943.30
2022-09-07T02:46:19.708Z,100939.35
2022-09-07T02:50:03.570Z,100930.77
2022-09-07T02:53:58.106Z,100924.66
2022-09-07T02:57:37.665Z,100925.02
2022-09-07T03:01:15.368Z,100931.89
2022-09-07T03:04:48.587Z,100932.65
2022-09-07T03:08:21.327Z,100933.63
2022-09-07T03:11:48.738Z,100935.15
2022-09-07T03:15:18.018Z,100939.80
2022-09-07T03:18:45.387Z,100942.89
2022-09-07T03:22:12.109Z,100941.95
2022-09-07T03:25:39.059Z,100934.92
2022-09-07T03:29:06.476Z,100931.20
2022-09-07T03:32:35.933Z,100932.87
2022-09-07T03:36:03.909Z,100931.38
2022-09-07T03:39:31.335Z,100928.50
2022-09-07T03:42:58.859Z,100931.04
2022-09-07T03:46:25.569Z,100938.62
2022-09-07T03:49:52.401Z,100933.42
2022-09-07T03:53:19.354Z,100934.55
2022-09-07T03:56:46.127Z,100939.35
2022-09-07T04:00:16.196Z,100938.42
2022-09-07T04:03:44.275Z,100941.14
2022-09-07T04:07:11.082Z,100939.56
2022-09-07T04:10:41.240Z,100938.33
2022-09-07T04:14:08.645Z,100933.98
2022-09-07T04:17:35.796Z,100928.05
2022-09-07T04:21:02.586Z,100924.71
2022-09-07T04:24:30.048Z,100908.84
2022-09-07T04:27:58.315Z,100904.45
2022-09-07T04:31:25.620Z,100907.11
2022-09-07T04:34:54.455Z,100911.87
2022-09-07T04:38:21.704Z,100904.24
2022-09-07T04:41:48.390Z,100898.59
2022-09-07T04:45:15.743Z,100902.23
2022-09-07T04:48:42.450Z,100911.31
2022-09-07T04:52:09.720Z,100914.48
2022-09-07T04:55:36.527Z,100921.31
2022-09-07T04:59:04.667Z,100921.80
2022-09-07T05:02:31.704Z,100917.95
2022-09-07T05:06:01.375Z,100910.87
2022-09-07T05:09:28.722Z,100912.45
2022-09-07T05:12:55.364Z,100919.95
2022-09-07T05:16:24.388Z,100910.64
2022-09-07T05:19:51.885Z,100899.52
2022-09-07T05:23:19.062Z,100899.27
2022-09-07T05:26:46.188Z,100895.78
2022-09-07T05:37:53.664Z,100897.02
2022-09-07T05:41:22.079Z,100894.41
2022-09-07T05:44:49.067Z,100898.95
2022-09-07T05:48:16.550Z,100896.21
2022-09-07T05:51:43.250Z,100897.91
2022-09-07T05:55:28.909Z,100893.38
2022-09-07T05:58:57.011Z,100888.45
2022-09-07T06:02:23.821Z,100890.20
2022-09-07T06:05:50.844Z,100885.38
2022-09-07T06:09:17.504Z,100879.65
2022-09-07T06:12:49.208Z,100884.41
2022-09-07T06:16:18.564Z,100879.39
2022-09-07T06:19:45.553Z,100879.30
2022-09-07T06:23:12.684Z,100884.71
2022-09-07T06:26:39.420Z,100882.11
2022-09-07T06:30:08.725Z,100876.17
2022-09-07T06:33:35.731Z,100868.23
2022-09-07T06:37:02.541Z,100868.70
2022-09-07T06:40:29.557Z,100876.80
2022-09-07T06:43:58.275Z,100876.37
2022-09-07T06:47:25.666Z,100874.80
2022-09-07T06:51:01.736Z,100873.83
2022-09-07T06:58:15.750Z,100870.34
2022-09-07T07:01:42.704Z,100871.16
2022-09-07T07:05:10.942Z,100866.89
2022-09-07T07:08:38.091Z,100866.17
2022-09-07T07:12:05.816Z,100868.61
2022-09-07T07:15:33.144Z,100868.39
2022-09-07T07:19:00.358Z,100875.64
2022-09-07T07:22:46.067Z,100883.08
2022-09-07T07:26:16.279Z,100882.75
2022-09-07T07:29:43.257Z,100884.27
2022-09-07T07:33:10.052Z,100887.95
2022-09-07T07:36:36.859Z,100887.24
2022-09-07T07:40:23.495Z,100882.05
2022-09-07T07:43:57.114Z,100880.21
2022-09-07T07:47:23.820Z,100880.14
2022-09-07T07:51:02.647Z,100882.64
2022-09-07T07:54:31.030Z,100877.20
2022-09-07T07:57:57.595Z,100877.17
2022-09-07T08:01:24.253Z,100874.01
2022-09-07T08:04:51.539Z,100868.36
2022-09-07T08:08:18.192Z,100866.23
2022-09-07T08:11:44.894Z,100864.04
2022-09-07T08:15:12.710Z,100871.02
2022-09-07T08:18:40.491Z,100870.48
2022-09-07T08:22:07.942Z,100866.89
2022-09-07T08:25:34.753Z,100872.54
2022-09-07T08:29:01.470Z,100869.95
2022-09-07T08:32:30.233Z,100867.64
2022-09-07T08:36:02.925Z,100866.39
2022-09-07T08:39:30.033Z,100865.44
2022-09-07T08:43:13.692Z,100867.18
2022-09-07T08:46:45.796Z,100867.98
2022-09-07T08:50:19.424Z,100862.08
2022-09-07T08:53:48.171Z,100859.08
2022-09-07T08:57:29.103Z,100858.05
2022-09-07T09:08:41.643Z,100855.17
2022-09-07T09:12:22.951Z,100851.42
2022-09-07T09:15:59.495Z,100849.04
2022-09-07T09:19:53.554Z,100841.19
2022-09-07T09:23:24.574Z,100839.39
2022-09-07T09:26:55.659Z,100838.27
2022-09-07T09:30:25.253Z,100836.53
2022-09-07T09:34:10.473Z,100831.80
2022-09-07T09:37:39.482Z,100821.29
2022-09-07T09:41:10.984Z,100817.59
2022-09-07T09:44:38.942Z,100810.63
2022-09-07T09:48:12.651Z,100803.73
2022-09-07T09:55:36.588Z,100791.59
2022-09-07T10:07:18.484Z,100786.48
2022-09-07T10:10:57.852Z,100791.14
2022-09-07T10:14:27.806Z,100785.95
2022-09-07T10:17:54.827Z,100782.35
2022-09-07T10:21:28.027Z,100771.23
2022-09-07T10:24:54.584Z,100771.95
2022-09-07T10:28:24.233Z,100774.63
2022-09-07T10:32:20.849Z,100769.23
2022-09-07T10:35:54.829Z,100767.89
2022-09-07T10:39:27.206Z,100768.11
2022-09-07T10:46:58.057Z,100772.08
2022-09-07T10:50:33.502Z,100774.42
2022-09-07T10:58:10.530Z,100773.91
2022-09-07T11:01:53.001Z,100763.99
2022-09-07T11:05:33.628Z,100763.59
2022-09-07T11:09:17.900Z,100761.21
2022-09-07T11:12:47.597Z,100758.52
2022-09-07T11:20:15.420Z,100745.48
2022-09-07T11:23:46.098Z,100745.09
2022-09-07T11:27:19.808Z,100743.79
2022-09-07T11:30:50.583Z,100739.98
2022-09-07T11:34:24.415Z,100737.67
2022-09-07T11:37:59.666Z,100733.55
2022-09-07T11:41:30.676Z,100725.64
2022-09-07T11:45:02.613Z,100718.40
2022-09-07T11:48:36.541Z,100705.73
2022-09-07T11:52:08.826Z,100713.25
2022-09-07T11:55:39.551Z,100714.30
2022-09-07T11:59:26.596Z,100708.35
2022-09-07T12:03:31.959Z,100705.55
2022-09-07T12:07:35.169Z,100706.65
2022-09-07T12:11:20.188Z,100711.36
2022-09-07T12:15:04.717Z,100715.81
2022-09-07T12:18:55.128Z,100717.56
2022-09-07T12:22:24.158Z,100716.05
2022-09-07T12:25:52.631Z,100708.09
2022-09-07T12:29:25.620Z,100704.44
2022-09-07T12:33:20.002Z,100702.16
2022-09-07T12:36:51.992Z,100690.09
2022-09-07T12:40:45.255Z,100685.55
2022-09-07T12:44:24.987Z,100684.80
2022-09-07T12:48:04.552Z,100685.67
2022-09-07T12:59:56.115Z,100662.25
2022-09-07T13:03:51.721Z,100665.29
2022-09-07T13:07:47.707Z,100662.55
2022-09-07T13:11:34.580Z,100657.83
2022-09-07T13:15:02.298Z,100655.05
2022-09-07T13:18:47.659Z,100654.48
2022-09-07T13:22:42.026Z,100648.73
2022-09-07T13:26:13.265Z,100645.98
2022-09-07T13:29:48.468Z,100641.89
2022-09-07T13:33:48.146Z,100632.01
2022-09-07T13:37:22.875Z,100630.55
2022-09-07T13:40:52.180Z,100624.69
2022-09-07T13:44:26.489Z,100618.14
2022-09-07T13:48:03.303Z,100611.86
2022-09-07T13:51:35.724Z,100612.07
2022-09-07T13:55:22.706Z,100613.35
2022-09-07T13:58:54.474Z,100611.81
2022-09-07T14:02:28.284Z,100604.66
2022-09-07T14:06:31.666Z,100604.29
2022-09-07T14:10:14.697Z,100602.42
2022-09-07T14:13:41.360Z,100601.88
2022-09-07T14:17:13.575Z,100609.75
2022-09-07T14:20:53.306Z,100606.73
2022-09-07T14:24:29.570Z,100608.73
2022-09-07T14:27:57.839Z,100604.66
2022-09-07T14:31:26.247Z,100605.51
2022-09-07T14:34:53.554Z,100598.96
2022-09-07T14:42:17.579Z,100601.39
2022-09-07T14:45:44.184Z,100598.98
2022-09-07T14:49:23.078Z,100599.99
2022-09-07T14:56:41.876Z,100592.05
2022-09-07T15:00:33.030Z,100594.17
2022-09-07T15:04:01.938Z,100583.33
2022-09-07T15:07:39.068Z,100588.08
2022-09-07T15:14:55.644Z,100575.98
2022-09-07T15:18:56.544Z,100572.80
2022-09-07T15:22:23.459Z,100566.98
2022-09-07T15:25:54.189Z,100569.50
2022-09-07T15:29:23.126Z,100573.02
2022-09-07T15:32:51.042Z,100568.11
2022-09-07T15:36:20.492Z,100566.30
2022-09-07T15:39:46.085Z,100568.50
2022-09-07T15:43:20.319Z,100559.73
2022-09-07T15:50:36.108Z,100564.06
2022-09-07T15:54:18.461Z,100562.13
2022-09-07T15:57:50.187Z,100565.70
2022-09-07T16:05:08.130Z,100558.71
2022-09-07T16:08:34.745Z,100558.64
2022-09-07T16:15:50.337Z,100552.58
2022-09-07T16:19:20.505Z,100549.30
2022-09-07T16:26:34.030Z,100551.67
2022-09-07T16:30:00.885Z,100553.48
2022-09-07T16:33:36.094Z,100550.27
2022-09-07T16:37:03.683Z,100546.11
2022-09-07T16:40:31.171Z,100543.67
2022-09-07T16:43:58.693Z,100545.67
2022-09-07T16:47:25.620Z,100546.44
2022-09-07T16:51:01.671Z,100540.86
2022-09-07T16:54:29.457Z,100540.17
2022-09-07T17:01:43.081Z,100549.17
2022-09-07T17:05:11.202Z,100547.21
2022-09-07T17:08:39.457Z,100541.48
2022-09-07T17:12:07.857Z,100538.48
2022-09-07T17:15:36.594Z,100537.75
2022-09-07T17:22:52.051Z,100533.02
2022-09-07T17:26:20.536Z,100525.00
2022-09-07T17:29:47.124Z,100521.70
2022-09-07T17:33:13.951Z,100521.92
2022-09-07T17:36:42.604Z,100524.82
2022-09-07T17:40:11.620Z,100520.63
2022-09-07T17:43:39.526Z,100524.58
2022-09-07T17:47:10.575Z,100535.42
2022-09-07T17:50:37.391Z,100543.06
2022-09-07T17:54:13.169Z,100554.23
2022-09-07T17:57:40.054Z,100561.85
2022-09-07T18:01:08.109Z,100565.72
2022-09-07T18:04:35.862Z,100571.57
2022-09-07T18:08:02.883Z,100567.98
2022-09-07T18:11:46.626Z,100565.10
2022-09-07T18:15:14.637Z,100567.89
2022-09-07T18:18:42.108Z,100576.48
2022-09-07T18:22:09.381Z,100580.29
2022-09-07T18:25:36.538Z,100576.64
2022-09-07T18:29:04.299Z,100579.52
2022-09-07T18:32:31.894Z,100581.54
2022-09-07T18:35:59.021Z,100589.06
2022-09-07T18:39:26.678Z,100598.37
2022-09-07T18:42:53.312Z,100594.05
2022-09-07T18:46:22.222Z,100593.41
2022-09-07T18:49:49.076Z,100597.01
2022-09-07T18:53:16.929Z,100591.74
2022-09-07T18:56:44.972Z,100596.56
2022-09-07T19:00:15.156Z,100598.02
2022-09-07T19:03:42.941Z,100601.80
2022-09-07T19:07:10.725Z,100596.21
2022-09-07T19:10:38.781Z,100601.08
2022-09-07T19:14:06.128Z,100596.38
2022-09-07T19:17:34.089Z,100592.02
2022-09-07T19:21:05.497Z,100588.05
2022-09-07T19:24:33.332Z,100581.23
2022-09-07T19:28:00.160Z,100579.89
2022-09-07T19:31:28.021Z,100577.48
2022-09-07T19:34:55.975Z,100581.11
2022-09-07T19:38:22.666Z,100580.84
2022-09-07T19:41:49.296Z,100582.14
2022-09-07T19:45:16.477Z,100576.58
2022-09-07T19:48:43.666Z,100577.18
2022-09-07T19:52:10.379Z,100576.02
2022-09-07T19:55:37.099Z,100574.30
2022-09-07T19:59:03.907Z,100568.73
2022-09-07T20:02:30.628Z,100565.09
2022-09-07T20:05:57.854Z,100556.15
2022-09-07T20:09:25.271Z,100555.52
2022-09-07T20:12:51.948Z,100557.50
2022-09-07T20:16:20.388Z,100553.48
2022-09-07T20:19:46.905Z,100559.36
2022-09-07T20:23:13.374Z,100561.01
2022-09-07T20:26:39.960Z,100555.58
2022-09-07T20:30:09.114Z,100548.36
2022-09-07T20:33:36.200Z,100549.80
2022-09-07T20:37:02.864Z,100551.95
2022-09-07T20:40:29.896Z,100554.27
2022-09-07T20:43:57.139Z,100547.27
2022-09-07T20:47:24.052Z,100536.55
2022-09-07T20:50:58.444Z,100541.00
2022-09-07T20:54:25.335Z,100544.74
2022-09-07T20:57:54.196Z,100542.48
2022-09-07T21:01:21.532Z,100539.36
2022-09-07T21:04:49.071Z,100538.16
2022-09-07T21:08:16.639Z,100536.92
2022-09-07T21:11:48.572Z,100541.88
2022-09-07T21:15:16.013Z,100541.73
2022-09-07T21:18:44.048Z,100534.89
2022-09-07T21:22:11.122Z,100543.18
2022-09-07T21:25:42.904Z,100542.16
2022-09-07T21:29:14.891Z,100535.47
2022-09-07T21:32:42.098Z,100542.38
2022-09-07T21:36:11.977Z,100542.05
2022-09-07T21:39:37.134Z,100538.72
2022-09-07T21:43:04.049Z,100535.92
2022-09-07T21:46:32.593Z,100536.65
2022-09-07T21:49:59.463Z,100533.85
2022-09-07T21:53:26.479Z,100536.86
2022-09-07T21:56:54.443Z,100542.53
2022-09-07T22:00:22.765Z,100533.41
2022-09-07T22:03:54.679Z,100535.38
2022-09-07T22:07:21.400Z,100532.05
2022-09-07T22:10:48.678Z,100530.13
2022-09-07T22:14:16.498Z,100527.68
2022-09-07T22:17:46.348Z,100529.98
2022-09-07T22:21:12.914Z,100526.66
2022-09-07T22:24:39.507Z,100522.63
2022-09-07T22:28:06.671Z,100519.82
2022-09-07T22:31:34.771Z,100524.76
2022-09-07T22:35:01.944Z,100519.66
2022-09-07T22:38:31.177Z,100516.33
2022-09-07T22:41:58.286Z,100508.95
2022-09-07T22:45:24.880Z,100508.79
2022-09-07T22:48:53.979Z,100500.52
2022-09-07T22:52:21.434Z,100499.64
2022-09-07T22:55:48.457Z,100505.98
2022-09-07T22:59:15.219Z,100513.19
2022-09-07T23:02:42.036Z,100507.55
2022-09-07T23:06:08.958Z,100497.89
2022-09-07T23:09:36.196Z,100489.62
2022-09-07T23:13:03.633Z,100485.58
2022-09-07T23:16:30.852Z,100480.11
2022-09-07T23:19:58.114Z,100473.45
2022-09-07T23:23:25.203Z,100471.69
2022-09-07T23:26:52.052Z,100470.11
2022-09-07T23:30:19.066Z,100472.55
2022-09-07T23:33:45.814Z,100466.23
2022-09-07T23:37:13.052Z,100457.98
2022-09-07T23:40:39.956Z,100450.95
2022-09-07T23:44:07.077Z,100449.20
2022-09-07T23:47:34.342Z,100445.71
2022-09-07T23:51:01.119Z,100449.06
2022-09-07T23:54:28.385Z,100445.37
2022-09-07T23:57:54.920Z,100444.15
